Time;durP1;ratioP1;P1;durP2;ratioP2;P2;SDS_P1;SDS_P2;PMS_P1;PMS_P2;Temp;Humidity;BMP_temperature;BMP_pressure;BME280_temperature;BME280_humidity;BME280_pressure;Samples;Min_cycle;Max_cycle;Signal;HPM_P1;HPM_P2
2021/08/31 00:01:13;;;;;;;16.70;11.80;;;;;;;18.17;85.99;98842.48;111945;1211;22435;-59
2021/08/31 00:04:02;;;;;;;16.30;12.50;;;;;;;18.13;85.97;98838.77;111777;1204;25124;-59
2021/08/31 00:06:52;;;;;;;16.60;11.60;;;;;;;18.10;85.89;98839.39;111729;1204;25500;-60
2021/08/31 00:09:41;;;;;;;18.30;12.00;;;;;;;18.06;86.05;98844.58;111758;1206;24073;-60
2021/08/31 00:12:41;;;;;;;17.20;12.70;;;;;;;18.02;85.85;98845.98;111826;1205;25142;-60
2021/08/31 00:15:32;;;;;;;16.30;12.40;;;;;;;17.97;86.05;98838.27;115654;1204;22981;-60
2021/08/31 00:18:40;;;;;;;;;;;;;;;17.94;86.10;98841.03;115656;1204;23010;-60
2021/08/31 00:21:28;;;;;;;;;;;;;;;17.89;86.13;98840.09;115602;1204;22316;-60
2021/08/31 00:24:17;;;;;;;14.70;11.30;;;;;;;17.85;86.33;98839.45;115598;1204;22860;-60
2021/08/31 00:27:06;;;;;;;19.40;11.60;;;;;;;17.82;86.42;98838.04;115625;1204;23254;-60
2021/08/31 00:29:54;;;;;;;14.60;12.10;;;;;;;17.80;86.61;98837.65;115626;1204;22319;-60
2021/08/31 00:32:45;;;;;;;16.20;12.00;;;;;;;17.80;86.67;98840.36;115702;1205;22167;-60
2021/08/31 00:35:35;;;;;;;14.70;11.80;;;;;;;17.77;86.74;98849.53;115645;1204;22259;-60
2021/08/31 00:38:23;;;;;;;14.30;12.00;;;;;;;17.74;86.87;98856.79;115590;1205;22305;-60
2021/08/31 00:41:13;;;;;;;14.60;11.60;;;;;;;17.72;86.93;98855.36;115673;1204;22747;-60
2021/08/31 00:44:03;;;;;;;15.10;11.50;;;;;;;17.72;87.02;98851.86;115651;1211;22106;-60
2021/08/31 00:46:52;;;;;;;13.60;11.80;;;;;;;17.71;87.08;98855.46;115617;1204;22238;-60
2021/08/31 00:49:40;;;;;;;19.90;11.60;;;;;;;17.70;87.10;98857.54;115668;1204;22829;-60
2021/08/31 00:52:29;;;;;;;16.70;12.10;;;;;;;17.69;87.15;98860.99;115586;1211;23220;-60
2021/08/31 00:55:19;;;;;;;16.00;11.60;;;;;;;17.66;87.15;98856.97;115596;1204;23083;-60
2021/08/31 00:58:08;;;;;;;18.80;13.30;;;;;;;17.66;87.12;98857.68;115643;1205;22305;-60
2021/08/31 01:00:56;;;;;;;19.10;12.80;;;;;;;17.63;87.08;98850.59;115658;1204;22308;-60
2021/08/31 01:03:46;;;;;;;18.20;12.90;;;;;;;17.61;87.12;98858.83;115619;1205;22290;-60
2021/08/31 01:06:34;;;;;;;17.60;12.30;;;;;;;17.59;87.15;98867.40;115550;1204;22310;-60
2021/08/31 01:09:24;;;;;;;15.90;12.30;;;;;;;17.56;87.01;98878.51;115661;1204;22371;-60
2021/08/31 01:12:13;;;;;;;17.80;12.90;;;;;;;17.53;87.10;98873.41;115611;1204;22277;-60
2021/08/31 01:15:01;;;;;;;17.20;12.00;;;;;;;17.53;87.25;98875.52;115640;1205;22292;-60
2021/08/31 01:17:50;;;;;;;15.50;12.20;;;;;;;17.51;87.16;98877.16;115640;1211;22309;-60
2021/08/31 01:20:40;;;;;;;16.70;12.20;;;;;;;17.50;87.14;98874.55;115603;1209;22220;-60
2021/08/31 01:23:29;;;;;;;15.20;11.00;;;;;;;17.49;87.21;98876.17;115620;1205;22347;-60
2021/08/31 01:26:18;;;;;;;18.90;11.90;;;;;;;17.48;87.24;98881.70;115630;1204;22313;-60
2021/08/31 01:29:07;;;;;;;14.20;10.60;;;;;;;17.47;87.23;98888.40;115694;1204;22318;-60
2021/08/31 01:31:56;;;;;;;13.30;10.70;;;;;;;17.43;87.20;98890.63;115626;1205;22386;-60
2021/08/31 01:34:44;;;;;;;15.40;11.00;;;;;;;17.41;87.21;98886.71;115653;1205;24249;-60
2021/08/31 01:37:33;;;;;;;13.50;11.20;;;;;;;17.39;87.33;98889.27;115613;1205;22331;-60
2021/08/31 01:40:21;;;;;;;14.30;10.70;;;;;;;17.37;87.37;98895.64;115562;1205;22949;-60
2021/08/31 01:43:10;;;;;;;14.40;10.90;;;;;;;17.34;87.27;98898.02;115649;1205;22234;-60
2021/08/31 01:45:59;;;;;;;19.40;11.60;;;;;;;17.30;87.36;98906.98;115598;1204;22337;-61
2021/08/31 01:48:48;;;;;;;17.80;12.40;;;;;;;17.29;87.43;98909.58;115589;1209;22297;-60
2021/08/31 01:51:44;;;;;;;17.60;11.70;;;;;;;17.29;87.52;98905.56;115594;1211;22508;-60
2021/08/31 01:54:33;;;;;;;15.70;11.50;;;;;;;17.28;87.41;98912.78;115605;1212;22491;-60
2021/08/31 01:57:21;;;;;;;21.10;11.90;;;;;;;17.27;87.32;98910.56;115641;1205;22334;-60
2021/08/31 02:00:11;;;;;;;24.20;12.10;;;;;;;17.25;87.38;98910.23;115610;1205;22308;-60
2021/08/31 02:03:00;;;;;;;15.40;12.10;;;;;;;17.23;87.47;98907.08;115604;1205;22343;-60
2021/08/31 02:05:49;;;;;;;17.20;12.60;;;;;;;17.23;87.39;98905.33;115629;1205;22221;-60
2021/08/31 02:08:37;;;;;;;17.30;11.80;;;;;;;17.22;87.31;98910.17;115569;1205;22302;-60
2021/08/31 02:11:28;;;;;;;17.20;12.40;;;;;;;17.22;87.36;98915.42;115647;1204;22137;-60
2021/08/31 02:14:16;;;;;;;19.00;12.30;;;;;;;17.22;87.30;98916.69;115658;1205;22424;-60
2021/08/31 02:17:05;;;;;;;19.20;12.80;;;;;;;17.21;87.25;98913.58;115597;1205;22286;-60
2021/08/31 02:19:54;;;;;;;22.20;13.50;;;;;;;17.20;87.25;98907.48;115638;1205;22374;-60
2021/08/31 02:22:43;;;;;;;17.20;12.00;;;;;;;17.20;87.21;98904.85;115601;1205;23018;-60
2021/08/31 02:25:32;;;;;;;15.30;11.60;;;;;;;17.15;87.03;98900.79;115625;1205;22155;-60
2021/08/31 02:28:20;;;;;;;18.30;12.30;;;;;;;17.13;87.01;98906.74;115601;1206;22301;-60
2021/08/31 02:31:09;;;;;;;16.00;11.50;;;;;;;17.13;87.03;98905.48;115574;1206;22226;-60
2021/08/31 02:33:58;;;;;;;16.70;11.50;;;;;;;17.12;87.03;98899.67;115643;1205;22278;-60
2021/08/31 02:36:48;;;;;;;21.20;11.80;;;;;;;17.13;87.21;98906.20;115624;1205;23426;-60
2021/08/31 02:39:36;;;;;;;13.80;10.90;;;;;;;17.16;87.19;98904.27;115637;1209;22296;-60
2021/08/31 02:42:25;;;;;;;15.30;11.30;;;;;;;17.17;87.13;98907.85;115673;1208;22274;-60
2021/08/31 02:45:14;;;;;;;14.40;11.20;;;;;;;17.16;87.08;98913.27;115682;1205;22287;-60
2021/08/31 02:48:09;;;;;;;16.40;10.70;;;;;;;17.18;86.97;98925.14;115601;1206;23069;-59
2021/08/31 02:50:58;;;;;;;13.00;10.60;;;;;;;17.18;86.79;98924.88;115597;1205;22978;-60
2021/08/31 02:53:48;;;;;;;12.70;9.70;;;;;;;17.16;86.68;98925.22;115562;1205;22377;-60
2021/08/31 02:56:37;;;;;;;13.30;9.90;;;;;;;17.16;86.63;98926.66;115606;1213;22307;-60
2021/08/31 02:59:25;;;;;;;17.70;9.90;;;;;;;17.12;86.40;98933.04;115612;1206;22440;-60
2021/08/31 03:02:14;;;;;;;11.10;9.60;;;;;;;17.09;86.32;98937.02;115526;1206;22314;-60
2021/08/31 03:05:04;;;;;;;13.40;9.40;;;;;;;17.06;86.31;98937.16;115634;1211;22260;-60
2021/08/31 03:07:53;;;;;;;13.40;8.90;;;;;;;17.02;86.32;98939.73;115593;1205;22333;-60
2021/08/31 03:10:42;;;;;;;12.50;9.20;;;;;;;16.97;86.20;98943.72;115603;1205;22215;-60
2021/08/31 03:13:31;;;;;;;12.60;9.30;;;;;;;16.94;86.28;98948.58;115548;1205;22333;-60
2021/08/31 03:16:20;;;;;;;10.80;9.60;;;;;;;16.89;86.28;98944.73;115537;1212;22924;-60
2021/08/31 03:19:11;;;;;;;11.40;8.20;;;;;;;16.87;86.21;98946.67;115608;1205;22075;-60
2021/08/31 03:22:01;;;;;;;13.10;8.80;;;;;;;16.83;85.93;98946.77;115624;1212;22321;-60
2021/08/31 03:24:50;;;;;;;10.70;8.70;;;;;;;16.78;85.89;98943.58;115556;1206;22110;-60
2021/08/31 03:27:39;;;;;;;10.50;8.00;;;;;;;16.74;85.79;98940.23;115679;1205;23165;-60
2021/08/31 03:30:27;;;;;;;11.90;8.00;;;;;;;16.70;85.68;98943.20;115562;1205;22325;-59
2021/08/31 03:33:16;;;;;;;10.50;7.90;;;;;;;16.66;85.34;98937.89;115585;1208;22420;-59
2021/08/31 03:36:07;;;;;;;8.20;7.30;;;;;;;16.59;85.41;98939.27;115609;1209;23190;-59
2021/08/31 03:38:56;;;;;;;10.60;7.10;;;;;;;16.56;85.29;98942.45;115627;1205;22400;-58
2021/08/31 03:41:44;;;;;;;8.50;7.40;;;;;;;16.52;85.32;98941.45;115631;1205;22256;-60
2021/08/31 03:44:33;;;;;;;9.30;7.10;;;;;;;16.46;85.30;98936.51;115606;1209;22096;-59
2021/08/31 03:48:37;;;;;;;9.30;7.10;;;;;;;16.44;85.39;98941.42;110394;1221;544875;-59
2021/08/31 03:51:27;;;;;;;9.60;7.50;;;;;;;16.39;85.16;98938.06;111768;1205;25269;-59
2021/08/31 03:54:17;;;;;;;9.20;7.20;;;;;;;16.36;85.14;98936.48;115539;1205;23106;-60
2021/08/31 03:57:06;;;;;;;11.00;7.30;;;;;;;16.33;85.01;98938.63;115602;1207;22320;-60
2021/08/31 03:59:54;;;;;;;13.20;6.60;;;;;;;16.32;84.90;98944.27;115619;1205;23021;-60
2021/08/31 04:02:43;;;;;;;10.90;6.60;;;;;;;16.31;84.94;98947.79;115571;1207;22197;-60
2021/08/31 04:05:36;;;;;;;9.40;7.30;;;;;;;16.33;84.71;98946.92;115600;1205;22384;-64
2021/08/31 04:08:25;;;;;;;12.10;8.00;;;;;;;16.35;84.72;98955.20;115578;1209;22332;-63
2021/08/31 04:11:13;;;;;;;10.20;8.20;;;;;;;16.39;84.67;98956.21;115563;1205;22329;-64
2021/08/31 04:14:03;;;;;;;11.60;7.00;;;;;;;16.46;84.63;98956.04;115526;1207;22302;-64
2021/08/31 04:16:52;;;;;;;8.80;7.40;;;;;;;16.55;84.54;98954.52;115581;1205;22302;-63
2021/08/31 04:19:42;;;;;;;12.00;8.20;;;;;;;16.63;84.15;98960.05;115606;1208;22912;-63
2021/08/31 04:22:31;;;;;;;10.60;7.80;;;;;;;16.69;83.88;98965.27;115599;1205;22287;-65
2021/08/31 04:25:20;;;;;;;10.90;8.30;;;;;;;16.75;83.71;98965.16;115637;1205;22318;-66
2021/08/31 04:28:08;;;;;;;13.20;7.50;;;;;;;16.79;83.29;98972.08;115561;1205;22243;-66
2021/08/31 04:30:57;;;;;;;17.50;8.40;;;;;;;16.82;82.93;98968.26;115617;1204;22724;-65
2021/08/31 04:33:46;;;;;;;11.30;7.70;;;;;;;16.85;82.53;98973.03;115536;1207;22823;-65
2021/08/31 04:36:34;;;;;;;12.20;8.20;;;;;;;16.84;82.10;98969.08;115605;1205;22363;-65
2021/08/31 04:39:23;;;;;;;11.40;7.70;;;;;;;16.82;81.96;98970.45;115600;1207;22929;-65
2021/08/31 04:42:12;;;;;;;11.20;7.60;;;;;;;16.79;81.87;98969.58;115603;1205;22360;-65
2021/08/31 04:45:04;;;;;;;11.30;8.40;;;;;;;16.75;81.58;98973.14;115615;1205;22224;-66
2021/08/31 04:47:52;;;;;;;13.50;9.00;;;;;;;16.71;81.45;98974.64;115602;1212;22280;-66
2021/08/31 04:50:41;;;;;;;11.20;8.70;;;;;;;16.65;81.22;98979.89;115609;1205;23055;-66
2021/08/31 04:53:30;;;;;;;12.30;9.20;;;;;;;16.60;81.34;98978.20;115522;1207;23155;-66
2021/08/31 04:56:18;;;;;;;9.40;7.30;;;;;;;16.58;81.21;98974.64;115597;1205;22365;-65
2021/08/31 04:59:07;;;;;;;9.70;7.30;;;;;;;16.58;81.06;98976.06;115606;1205;22332;-66
2021/08/31 05:01:56;;;;;;;13.10;7.80;;;;;;;16.59;80.76;98977.39;115593;1206;22299;-66
2021/08/31 05:04:44;;;;;;;10.00;7.40;;;;;;;16.66;80.66;98983.44;115545;1206;22928;-66
2021/08/31 05:07:33;;;;;;;10.60;7.30;;;;;;;16.73;80.30;98982.77;115594;1205;22151;-66
2021/08/31 05:10:41;;;;;;;11.80;7.30;;;;;;;16.82;79.98;98987.29;115608;1205;23122;-66
2021/08/31 05:13:34;;;;;;;10.20;7.30;;;;;;;16.92;79.53;98983.18;115548;1207;23248;-66
2021/08/31 05:16:22;;;;;;;10.90;7.40;;;;;;;17.04;79.26;98986.31;115570;1205;22376;-66
2021/08/31 05:19:11;;;;;;;9.10;6.60;;;;;;;17.18;78.62;98985.71;115602;1205;22316;-66
2021/08/31 05:22:00;;;;;;;7.90;6.40;;;;;;;17.38;78.21;98987.98;115603;1205;22345;-66
2021/08/31 05:24:49;;;;;;;9.20;6.50;;;;;;;17.60;77.34;98989.76;115596;1206;22288;-66
2021/08/31 05:27:38;;;;;;;6.80;6.10;;;;;;;17.84;76.40;98983.09;115600;1205;22308;-66
2021/08/31 05:30:26;;;;;;;10.10;6.20;;;;;;;18.03;75.40;98987.23;115526;1207;22899;-67
2021/08/31 05:33:15;;;;;;;6.60;6.00;;;;;;;18.19;74.54;98986.18;115594;1205;22304;-66
2021/08/31 05:36:04;;;;;;;9.60;6.00;;;;;;;18.32;74.15;98991.08;115549;1205;22991;-65
2021/08/31 05:38:52;;;;;;;7.80;6.50;;;;;;;18.40;73.31;98990.18;115583;1205;22321;-65
2021/08/31 05:41:41;;;;;;;8.30;5.30;;;;;;;18.40;72.89;98986.86;115752;1204;22106;-65
2021/08/31 05:44:30;;;;;;;7.90;5.80;;;;;;;18.39;72.39;98987.77;115818;1203;23289;-65
2021/08/31 05:47:19;;;;;;;5.40;4.90;;;;;;;18.35;72.26;98984.61;115771;1205;22333;-65
2021/08/31 05:50:08;;;;;;;8.60;6.00;;;;;;;18.32;71.96;98979.75;115753;1205;22357;-65
2021/08/31 05:52:57;;;;;;;6.60;5.50;;;;;;;18.24;71.71;98978.69;115769;1205;22312;-65
2021/08/31 05:55:45;;;;;;;6.10;5.20;;;;;;;18.17;72.26;98975.25;115695;1204;22380;-66
2021/08/31 05:58:34;;;;;;;8.00;5.10;;;;;;;18.15;71.93;98973.34;115770;1204;22852;-66
2021/08/31 06:01:23;;;;;;;8.00;5.40;;;;;;;18.11;72.22;98973.92;115711;1205;22411;-60
2021/08/31 06:04:12;;;;;;;7.60;5.10;;;;;;;18.10;71.90;98973.08;115680;1204;22282;-60
2021/08/31 06:07:00;;;;;;;6.80;5.30;;;;;;;18.09;71.88;98970.48;115671;1204;22302;-61
2021/08/31 06:09:48;;;;;;;7.20;5.70;;;;;;;18.09;72.26;98971.29;115623;1204;22274;-60
2021/08/31 06:12:37;;;;;;;10.10;6.00;;;;;;;18.11;72.39;98971.14;115779;1203;22228;-60
2021/08/31 06:15:27;;;;;;;6.00;5.40;;;;;;;18.15;72.67;98972.63;115724;1205;22944;-61
2021/08/31 06:18:16;;;;;;;7.00;6.30;;;;;;;18.21;72.43;98975.95;115646;1204;22346;-60
2021/08/31 06:21:04;;;;;;;6.70;5.70;;;;;;;18.23;72.26;98976.77;115772;1205;23217;-60
2021/08/31 06:23:53;;;;;;;13.50;6.20;;;;;;;18.23;72.33;98983.27;115591;1205;22271;-59
2021/08/31 06:26:41;;;;;;;7.10;5.90;;;;;;;18.27;72.38;98982.95;115589;1204;22526;-60
2021/08/31 06:29:30;;;;;;;7.80;6.10;;;;;;;18.30;71.98;98987.92;115791;1205;22294;-60
2021/08/31 06:32:19;;;;;;;8.40;5.50;;;;;;;18.31;71.92;98986.90;115757;1205;22341;-60
2021/08/31 06:35:08;;;;;;;9.30;5.80;;;;;;;18.35;71.81;98985.63;115779;1203;22245;-60
2021/08/31 06:37:57;;;;;;;6.80;6.10;;;;;;;18.36;71.65;98988.52;115743;1203;22369;-60
2021/08/31 06:40:46;;;;;;;8.30;5.90;;;;;;;18.38;72.19;98985.69;115783;1205;22308;-60
2021/08/31 06:43:46;;;;;;;6.80;5.80;;;;;;;18.45;72.21;98986.98;115702;1211;22297;-60
2021/08/31 06:46:36;;;;;;;8.10;5.70;;;;;;;18.52;71.76;98987.27;115604;1204;22341;-60
2021/08/31 06:49:32;;;;;;;7.20;6.10;;;;;;;18.55;70.79;98993.80;115725;1205;22382;-60
2021/08/31 06:52:21;;;;;;;10.70;6.70;;;;;;;18.53;71.15;98993.23;115711;1205;23232;-60
2021/08/31 06:55:19;;;;;;;9.40;6.20;;;;;;;18.58;71.54;98990.41;115580;1205;22317;-60
2021/08/31 06:58:08;;;;;;;8.30;6.00;;;;;;;18.65;70.86;98988.70;115668;1204;22782;-59
2021/08/31 07:00:57;;;;;;;7.50;6.20;;;;;;;18.68;71.28;98987.05;115864;1201;22236;-59
2021/08/31 07:03:46;;;;;;;8.00;5.80;;;;;;;18.72;71.10;98984.23;115856;1202;22293;-59
2021/08/31 07:06:37;;;;;;;7.50;5.60;;;;;;;18.77;70.79;98993.05;115849;1201;22131;-59
2021/08/31 07:09:26;;;;;;;10.80;4.90;;;;;;;18.80;70.13;98990.59;115849;1202;22305;-59
2021/08/31 07:12:14;;;;;;;11.40;5.80;;;;;;;18.83;69.39;98990.65;115901;1201;22323;-59
2021/08/31 07:15:04;;;;;;;6.90;5.60;;;;;;;18.86;69.67;98992.84;115809;1203;22144;-59
2021/08/31 07:17:52;;;;;;;4.70;4.20;;;;;;;18.90;69.22;98989.77;115971;1201;22296;-62
2021/08/31 07:20:45;;;;;;;7.60;5.60;;;;;;;18.94;69.10;98988.92;115922;1202;22720;-59
2021/08/31 07:23:33;;;;;;;5.60;5.00;;;;;;;18.97;69.58;98985.52;115907;1202;22446;-59
2021/08/31 07:26:22;;;;;;;9.60;5.40;;;;;;;19.02;70.30;98986.78;114446;1208;22902;-60
2021/08/31 07:29:11;;;;;;;6.80;5.10;;;;;;;19.09;69.90;98992.19;111902;1202;22437;-60
2021/08/31 07:32:01;;;;;;;4.60;4.10;;;;;;;19.14;69.01;98999.44;111961;1200;25237;-59
2021/08/31 07:34:50;;;;;;;7.30;4.60;;;;;;;19.17;67.27;99004.58;111922;1203;24025;-59
2021/08/31 07:37:39;;;;;;;6.40;4.20;;;;;;;19.13;66.95;99002.88;111990;1203;25355;-59
2021/08/31 07:40:29;;;;;;;4.60;4.20;;;;;;;19.08;66.79;99005.67;111924;1202;22459;-61
2021/08/31 07:43:19;;;;;;;14.10;5.20;;;;;;;19.05;67.27;99004.80;111885;1209;22814;-60
2021/08/31 07:46:08;;;;;;;7.70;5.50;;;;;;;19.07;68.58;99002.13;111958;1201;25265;-59
2021/08/31 07:48:58;;;;;;;5.50;4.80;;;;;;;19.16;69.00;99010.73;111962;1202;25119;-59
2021/08/31 07:51:48;;;;;;;7.30;3.70;;;;;;;19.24;68.42;99009.19;111769;1202;23305;-59
2021/08/31 07:54:38;;;;;;;5.80;4.90;;;;;;;19.29;66.61;99010.39;111782;1202;24079;-61
2021/08/31 07:57:27;;;;;;;3.80;3.40;;;;;;;19.28;66.61;99013.64;111880;1201;25118;-59
2021/08/31 08:00:17;;;;;;;8.90;5.10;;;;;;;19.29;66.78;99005.73;111988;1203;22434;-59
2021/08/31 08:03:06;;;;;;;6.70;5.10;;;;;;;19.33;67.42;99005.27;111987;1201;22417;-59
2021/08/31 08:05:56;;;;;;;5.70;4.60;;;;;;;19.39;68.12;99006.30;111974;1202;25231;-59
2021/08/31 08:08:48;;;;;;;5.30;4.70;;;;;;;19.47;68.36;99010.96;111947;1202;25086;-60
2021/08/31 08:11:37;;;;;;;6.40;5.10;;;;;;;19.53;68.37;99009.22;111885;1201;24041;-59
2021/08/31 08:14:39;;;;;;;7.30;5.10;;;;;;;19.61;68.79;99009.02;111932;1202;25170;-60
2021/08/31 08:17:28;;;;;;;6.70;4.40;;;;;;;19.69;67.77;99009.43;111824;1202;25040;-59
2021/08/31 08:20:18;;;;;;;5.80;5.20;;;;;;;19.75;67.59;99009.23;111909;1203;22740;-59
2021/08/31 08:23:07;;;;;;;7.80;5.30;;;;;;;19.78;67.62;99013.30;111960;1203;24250;-59
2021/08/31 08:25:56;;;;;;;5.20;4.40;;;;;;;19.82;67.59;99011.89;111849;1203;22435;-62
2021/08/31 08:28:46;;;;;;;4.70;4.20;;;;;;;19.84;66.15;99014.33;111904;1202;24095;-61
2021/08/31 08:31:35;;;;;;;4.80;4.40;;;;;;;19.83;65.99;99010.76;111968;1201;22974;-60
2021/08/31 08:34:24;;;;;;;6.90;4.00;;;;;;;19.83;66.27;99015.54;111993;1203;24171;-60
2021/08/31 08:37:14;;;;;;;5.80;4.00;;;;;;;19.83;65.94;99015.23;111917;1203;22437;-59
2021/08/31 08:40:04;;;;;;;4.50;4.10;;;;;;;19.88;65.78;99016.01;111918;1203;22713;-59
2021/08/31 08:42:52;;;;;;;4.90;3.90;;;;;;;19.94;65.39;99025.27;115865;1203;22286;-60
2021/08/31 08:45:49;;;;;;;3.90;3.50;;;;;;;20.00;65.36;99021.09;115766;1203;23302;-60
2021/08/31 08:48:37;;;;;;;3.60;3.20;;;;;;;20.09;64.96;99027.84;115796;1206;22313;-60
2021/08/31 08:51:26;;;;;;;5.40;3.90;;;;;;;20.13;63.74;99021.32;115933;1201;22227;-61
2021/08/31 08:53:54;;;;;;;7.00;3.70;;;;;;;20.12;63.69;99022.95;115395;1200;143439;-60
2021/08/31 08:56:22;;;;;;;3.40;3.10;;;;;;;20.11;63.82;99018.56;115434;1200;139002;-60
2021/08/31 08:58:50;;;;;;;3.60;3.10;;;;;;;20.12;63.37;99016.48;115389;1204;31838;-60
2021/08/31 09:01:18;;;;;;;3.30;2.80;;;;;;;20.15;62.90;99012.69;115600;1204;23542;-60
2021/08/31 09:03:54;;;;;;;4.70;3.20;;;;;;;20.16;62.14;99017.52;115482;1201;136966;-60
2021/08/31 09:06:22;;;;;;;3.80;3.00;;;;;;;20.15;62.01;99013.47;115515;1204;23389;-61
2021/08/31 09:08:54;;;;;;;4.30;3.30;;;;;;;20.16;62.35;99009.16;115466;1201;137497;-61
2021/08/31 09:11:37;;;;;;;7.10;4.00;;;;;;;20.18;63.02;99011.77;115565;1204;22368;-60
2021/08/31 09:14:21;;;;;;;5.50;3.10;;;;;;;20.20;62.86;99006.80;115438;1200;137501;-60
2021/08/31 09:17:04;;;;;;;3.80;3.10;;;;;;;20.21;62.85;99009.45;115575;1204;22321;-61
2021/08/31 09:19:40;;;;;;;4.50;3.10;;;;;;;20.23;61.96;99013.41;115602;1204;22215;-61
2021/08/31 09:22:15;;;;;;;3.90;3.50;;;;;;;20.23;62.32;99013.96;115330;1201;136766;-60
2021/08/31 09:25:15;;;;;;;3.50;3.20;;;;;;;20.25;62.24;99015.75;115529;1204;23388;-61
2021/08/31 09:27:45;;;;;;;3.80;3.10;;;;;;;20.24;61.70;99015.75;115150;1205;138006;-60
2021/08/31 09:30:21;;;;;;;3.60;3.30;;;;;;;20.21;61.34;99016.16;115269;1208;22393;-60
2021/08/31 09:33:08;;;;;;;4.40;3.50;;;;;;;20.19;62.01;99016.18;115140;1209;137924;-60
2021/08/31 09:35:42;;;;;;;3.70;3.30;;;;;;;20.20;62.01;99020.95;115302;1209;22274;-61
2021/08/31 09:38:15;;;;;;;7.30;3.20;;;;;;;20.22;61.72;99017.48;115163;1204;137386;-60
2021/08/31 09:40:47;;;;;;;3.90;2.70;;;;;;;20.26;61.15;99017.30;115297;1209;22479;-61
2021/08/31 09:43:22;;;;;;;3.10;2.70;;;;;;;20.28;59.54;99022.30;115305;1209;23216;-61
2021/08/31 09:45:54;;;;;;;3.50;2.70;;;;;;;20.29;59.94;99019.90;115207;1204;137334;-61
2021/08/31 09:48:23;;;;;;;3.30;2.20;;;;;;;20.32;59.56;99020.18;115241;1210;22169;-60
2021/08/31 09:50:56;;;;;;;2.70;2.50;;;;;;;20.35;58.34;99021.62;115146;1204;138094;-60
2021/08/31 09:53:25;;;;;;;4.90;2.40;;;;;;;20.38;58.61;99026.44;115264;1209;22284;-60
2021/08/31 09:56:02;;;;;;;3.30;2.50;;;;;;;20.39;58.07;99022.92;115142;1203;137293;-60
2021/08/31 09:58:32;;;;;;;2.80;2.60;;;;;;;20.42;58.26;99025.67;115268;1209;22336;-60
2021/08/31 10:01:00;;;;;;;3.20;2.90;;;;;;;20.48;58.44;99025.88;115275;1209;23577;-60
2021/08/31 10:03:29;;;;;;;3.80;2.70;;;;;;;20.55;58.87;99023.15;115265;1203;137428;-60
2021/08/31 10:05:59;;;;;;;7.00;2.90;;;;;;;20.63;59.40;99024.13;115494;1204;22986;-60
2021/08/31 10:08:28;;;;;;;7.00;3.00;;;;;;;20.73;58.61;99026.10;115410;1199;138357;-61
2021/08/31 10:10:58;;;;;;;3.60;2.90;;;;;;;20.80;59.18;99020.52;115532;1204;22175;-61
2021/08/31 10:13:26;;;;;;;2.90;2.70;;;;;;;20.90;59.45;99026.19;115677;1203;22329;-61
2021/08/31 10:15:56;;;;;;;3.80;2.40;;;;;;;21.00;58.46;99025.60;115333;1200;137006;-61
2021/08/31 10:18:26;;;;;;;4.10;2.80;;;;;;;21.09;57.39;99029.23;115393;1204;22281;-61
2021/08/31 10:20:58;;;;;;;4.60;2.80;;;;;;;21.15;57.51;99027.66;115208;1203;139466;-60
2021/08/31 10:23:28;;;;;;;3.30;2.60;;;;;;;21.19;57.04;99030.68;115546;1210;22339;-61
2021/08/31 10:26:23;;;;;;;3.40;3.10;;;;;;;21.18;56.61;99030.96;115425;1198;137128;-61
2021/08/31 10:28:51;;;;;;;2.70;2.40;;;;;;;21.15;56.05;99036.79;115717;1210;22306;-60
2021/08/31 10:31:30;;;;;;;4.30;2.60;;;;;;;21.10;56.16;99025.48;115527;1211;22421;-60
2021/08/31 10:33:58;;;;;;;2.50;2.20;;;;;;;21.09;56.03;99025.76;115456;1201;137128;-59
2021/08/31 10:36:35;;;;;;;3.60;2.70;;;;;;;21.09;56.09;99033.51;115485;1211;23004;-59
2021/08/31 10:39:07;;;;;;;3.20;2.90;;;;;;;21.05;55.89;99031.95;115391;1207;137268;-60
2021/08/31 10:41:45;;;;;;;3.30;3.00;;;;;;;21.01;56.38;99034.20;115514;1204;23038;-60
2021/08/31 10:44:34;;;;;;;3.80;3.00;;;;;;;20.98;57.03;99030.99;115384;1201;137284;-60
2021/08/31 10:47:12;;;;;;;3.20;2.70;;;;;;;20.96;56.84;99034.30;115445;1204;22817;-60
2021/08/31 10:50:08;;;;;;;3.30;3.00;;;;;;;20.92;56.77;99030.83;115600;1204;22212;-59
2021/08/31 10:52:49;;;;;;;3.70;2.80;;;;;;;20.91;57.41;99031.14;115529;1204;22324;-59
2021/08/31 10:55:23;;;;;;;3.80;2.90;;;;;;;20.96;57.53;99031.46;115526;1204;22379;-60
2021/08/31 10:57:56;;;;;;;3.80;3.10;;;;;;;21.03;58.11;99026.34;115338;1201;137382;-59
2021/08/31 11:00:24;;;;;;;8.50;3.60;;;;;;;21.12;58.61;99029.55;115520;1204;22286;-59
2021/08/31 11:02:53;;;;;;;4.90;3.30;;;;;;;21.22;58.47;99030.39;115344;1201;137631;-59
2021/08/31 11:05:22;;;;;;;3.60;2.70;;;;;;;21.32;57.99;99032.52;115516;1204;22336;-59
2021/08/31 11:08:02;;;;;;;3.20;2.90;;;;;;;21.41;57.46;99036.46;115546;1204;22324;-60
2021/08/31 11:10:37;;;;;;;3.60;3.30;;;;;;;21.47;56.52;99032.36;115424;1202;137353;-60
2021/08/31 11:13:21;;;;;;;3.80;3.00;;;;;;;21.52;56.46;99028.55;115497;1204;22273;-60
2021/08/31 11:15:50;;;;;;;3.20;2.90;;;;;;;21.58;56.59;99029.48;115569;1201;137380;-60
2021/08/31 11:18:20;;;;;;;3.70;3.00;;;;;;;21.64;56.53;99030.95;115518;1205;22336;-60
2021/08/31 11:20:49;;;;;;;4.70;2.90;;;;;;;21.72;56.04;99033.13;115527;1200;138154;-60
2021/08/31 11:23:23;;;;;;;7.80;2.70;;;;;;;21.79;54.80;99032.80;115800;1202;23012;-59
2021/08/31 11:25:56;;;;;;;2.90;2.60;;;;;;;21.84;55.08;99035.93;115678;1209;23255;-59
2021/08/31 11:28:26;;;;;;;3.60;2.80;;;;;;;21.88;54.16;99027.67;115595;1199;137579;-60
2021/08/31 11:30:55;;;;;;;2.80;2.60;;;;;;;21.91;54.01;99030.21;115773;1202;22231;-59
2021/08/31 11:33:31;;;;;;;3.10;2.80;;;;;;;21.94;54.53;99036.73;115641;1200;136954;-61
2021/08/31 11:36:01;;;;;;;3.40;2.90;;;;;;;21.98;54.18;99032.98;115761;1205;24332;-60
2021/08/31 11:38:40;;;;;;;3.00;2.70;;;;;;;22.02;53.88;99033.40;115649;1203;137167;-60
2021/08/31 11:41:25;;;;;;;4.10;2.90;;;;;;;22.04;53.97;99036.80;115763;1209;23518;-61
2021/08/31 11:43:57;;;;;;;3.00;2.70;;;;;;;22.06;52.72;99034.81;115701;1202;22327;-60
2021/08/31 11:46:28;;;;;;;3.80;2.50;;;;;;;22.06;52.73;99035.11;115493;1201;136985;-60
2021/08/31 11:49:30;;;;;;;3.40;3.00;;;;;;;22.04;52.71;99035.44;115741;1208;22282;-60
2021/08/31 11:52:04;;;;;;;3.40;2.50;;;;;;;21.97;52.77;99032.94;115473;1199;136765;-60
2021/08/31 11:54:43;;;;;;;3.30;2.60;;;;;;;21.90;52.68;99034.38;115644;1210;22406;-60
2021/08/31 11:57:14;;;;;;;3.20;2.30;;;;;;;21.83;52.69;99029.38;115611;1202;137015;-61
2021/08/31 11:59:44;;;;;;;3.70;2.80;;;;;;;21.80;53.28;99029.21;115744;1204;24216;-60
2021/08/31 12:02:15;;;;;;;4.50;2.40;;;;;;;21.82;53.38;99026.89;115774;1205;22583;-60
2021/08/31 12:04:53;;;;;;;3.00;2.20;;;;;;;21.85;53.44;99034.22;115628;1199;137191;-60
2021/08/31 12:07:25;;;;;;;4.30;2.80;;;;;;;21.90;52.83;99029.21;115807;1202;22308;-60
2021/08/31 12:10:07;;;;;;;4.90;2.40;;;;;;;21.90;52.39;99028.04;115427;1201;136999;-60
2021/08/31 12:12:41;;;;;;;2.90;2.00;;;;;;;21.87;52.38;99029.70;115676;1204;22458;-60
2021/08/31 12:15:09;;;;;;;3.70;2.40;;;;;;;21.84;52.68;99027.11;115675;1198;137285;-60
2021/08/31 12:17:43;;;;;;;2.50;2.30;;;;;;;21.83;53.08;99024.39;115706;1204;22322;-60
2021/08/31 12:20:31;;;;;;;2.60;2.40;;;;;;;21.86;53.72;99022.50;115755;1203;22361;-60
2021/08/31 12:23:01;;;;;;;2.20;2.00;;;;;;;21.91;53.47;99021.73;115625;1199;137014;-60
2021/08/31 12:25:47;;;;;;;4.30;2.20;;;;;;;21.93;53.27;99023.38;115655;1205;22217;-60
2021/08/31 12:28:15;;;;;;;4.10;1.90;;;;;;;21.95;52.71;99025.18;115592;1204;138696;-60
2021/08/31 12:30:44;;;;;;;2.30;1.80;;;;;;;21.94;52.85;99030.05;115782;1210;22316;-60
2021/08/31 12:33:24;;;;;;;3.50;2.20;;;;;;;21.93;53.16;99026.14;115630;1199;137995;-60
2021/08/31 12:36:01;;;;;;;2.40;2.10;;;;;;;21.90;53.18;99028.36;115724;1205;22270;-60
2021/08/31 12:38:41;;;;;;;2.60;1.90;;;;;;;21.86;52.91;99028.30;115804;1205;22377;-60
2021/08/31 12:41:14;;;;;;;1.70;1.60;;;;;;;21.82;52.75;99027.98;115641;1199;136775;-60